createdAt,value
2023-04-29T00:02:18.764Z,99601.41
2023-04-29T00:04:46.792Z,99598.97
2023-04-29T00:07:16.033Z,99598.09
2023-04-29T00:09:44.019Z,99594.50
2023-04-29T00:12:11.573Z,99593.69
2023-04-29T00:14:39.111Z,99593.69
2023-04-29T00:17:06.776Z,99596.47
2023-04-29T00:19:34.445Z,99592.38
2023-04-29T00:22:01.990Z,99591.44
2023-04-29T00:24:30.029Z,99586.25
2023-04-29T00:26:57.659Z,99572.94
2023-04-29T00:29:25.128Z,99577.66
2023-04-29T00:31:52.720Z,99572.44
2023-04-29T00:34:20.482Z,99571.50
2023-04-29T00:36:48.174Z,99581.66
2023-04-29T00:39:15.685Z,99580.72
2023-04-29T00:41:43.371Z,99573.13
2023-04-29T00:44:11.616Z,99573.84
2023-04-29T00:46:39.774Z,99572.69
2023-04-29T00:49:08.663Z,99566.41
2023-04-29T00:51:37.702Z,99561.94
2023-04-29T00:54:05.694Z,99567.28
2023-04-29T00:56:36.440Z,99564.72
2023-04-29T00:59:04.905Z,99560.72
2023-04-29T01:01:32.877Z,99553.84
2023-04-29T01:04:00.989Z,99562.47
2023-04-29T01:06:38.025Z,99560.72
2023-04-29T01:09:24.410Z,99560.88
2023-04-29T01:12:13.464Z,99554.56
2023-04-29T01:14:47.212Z,99572.00
2023-04-29T01:17:20.527Z,99557.06
2023-04-29T01:19:52.841Z,99568.97
2023-04-29T01:22:23.140Z,99574.13
2023-04-29T01:24:52.184Z,99575.69
2023-04-29T01:27:33.641Z,99573.25
2023-04-29T01:30:22.771Z,99571.72
2023-04-29T01:32:56.853Z,99575.88
2023-04-29T01:35:34.673Z,99569.78
2023-04-29T01:38:22.996Z,99568.81
2023-04-29T01:41:13.563Z,99566.19
2023-04-29T01:43:46.803Z,99571.00
2023-04-29T01:46:20.472Z,99566.09
2023-04-29T01:48:49.475Z,99559.47
2023-04-29T01:51:17.211Z,99559.25
2023-04-29T01:53:44.677Z,99563.63
2023-04-29T01:56:12.397Z,99568.72
2023-04-29T01:59:18.480Z,99572.09
2023-04-29T02:01:59.099Z,99571.88
2023-04-29T02:04:28.835Z,99566.75
2023-04-29T02:06:57.387Z,99569.91
2023-04-29T02:09:25.338Z,99583.75
2023-04-29T02:11:59.953Z,99586.31
2023-04-29T02:14:31.775Z,99575.09
2023-04-29T02:17:02.131Z,99577.06
2023-04-29T02:19:30.154Z,99573.97
2023-04-29T02:21:57.897Z,99579.31
2023-04-29T02:24:27.110Z,99578.44
2023-04-29T02:26:54.576Z,99580.94
2023-04-29T02:29:22.159Z,99577.34
2023-04-29T02:31:50.076Z,99573.19
2023-04-29T02:34:18.124Z,99586.97
2023-04-29T02:36:45.629Z,99593.38
2023-04-29T02:39:13.146Z,99588.28
2023-04-29T02:41:42.205Z,99600.81
2023-04-29T02:44:12.494Z,99603.38
2023-04-29T02:46:41.639Z,99617.66
2023-04-29T02:49:09.322Z,99619.97
2023-04-29T02:51:37.363Z,99620.72
2023-04-29T02:54:05.739Z,99631.56
2023-04-29T02:56:33.296Z,99628.06
2023-04-29T02:59:00.971Z,99634.78
2023-04-29T03:01:29.245Z,99647.47
2023-04-29T03:03:57.650Z,99640.50
2023-04-29T03:06:26.045Z,99645.59
2023-04-29T03:08:54.209Z,99657.50
2023-04-29T03:11:24.713Z,99661.78
2023-04-29T03:13:52.500Z,99663.63
2023-04-29T03:16:22.191Z,99661.72
2023-04-29T03:18:50.238Z,99674.47
2023-04-29T03:21:17.815Z,99676.06
2023-04-29T03:23:45.521Z,99677.75
2023-04-29T03:26:19.560Z,99682.94
2023-04-29T03:28:47.882Z,99683.72
2023-04-29T03:31:16.719Z,99692.13
2023-04-29T03:33:45.157Z,99686.09
2023-04-29T03:36:13.565Z,99692.34
2023-04-29T03:38:51.326Z,99698.31
2023-04-29T03:41:19.283Z,99708.53
2023-04-29T03:43:48.780Z,99707.66
2023-04-29T03:46:17.066Z,99701.34
2023-04-29T03:48:45.779Z,99705.75
2023-04-29T03:51:13.728Z,99705.75
2023-04-29T03:53:41.826Z,99712.44
2023-04-29T03:56:09.459Z,99711.88
2023-04-29T03:58:37.912Z,99713.63
2023-04-29T04:01:05.916Z,99718.66
2023-04-29T04:03:40.791Z,99715.09
2023-04-29T04:06:08.446Z,99710.75
2023-04-29T04:08:36.594Z,99715.97
2023-04-29T04:11:15.457Z,99714.28
2023-04-29T04:13:47.102Z,99717.72
2023-04-29T04:16:17.065Z,99722.41
2023-04-29T04:18:45.461Z,99728.38
2023-04-29T04:21:13.476Z,99717.22
2023-04-29T04:23:45.123Z,99714.50
2023-04-29T04:26:16.110Z,99722.94
2023-04-29T04:29:00.696Z,99727.44
2023-04-29T04:31:51.225Z,99725.19
2023-04-29T04:34:20.504Z,99720.72
2023-04-29T04:36:50.715Z,99722.56
2023-04-29T04:39:18.490Z,99724.31
2023-04-29T04:41:46.519Z,99712.91
2023-04-29T04:44:14.563Z,99708.19
2023-04-29T04:47:11.855Z,99700.13
2023-04-29T04:49:49.877Z,99709.25
2023-04-29T04:52:20.568Z,99705.31
2023-04-29T04:54:51.600Z,99714.25
2023-04-29T04:57:24.242Z,99715.28
2023-04-29T04:59:52.337Z,99723.66
2023-04-29T05:02:20.060Z,99730.44
2023-04-29T05:04:47.811Z,99722.88
2023-04-29T05:07:17.563Z,99716.72
2023-04-29T05:10:06.903Z,99715.06
2023-04-29T05:12:39.079Z,99724.47
2023-04-29T05:15:09.334Z,99723.50
2023-04-29T05:17:37.311Z,99721.09
2023-04-29T05:20:05.738Z,99724.56
2023-04-29T05:22:34.692Z,99719.47
2023-04-29T05:25:03.847Z,99723.03
2023-04-29T05:27:36.535Z,99727.31
2023-04-29T05:30:08.025Z,99725.88
2023-04-29T05:32:35.987Z,99723.16
2023-04-29T05:35:07.281Z,99725.81
2023-04-29T05:37:36.188Z,99730.50
2023-04-29T05:40:14.943Z,99724.78
2023-04-29T05:42:43.353Z,99733.78
2023-04-29T05:45:12.582Z,99734.75
2023-04-29T05:47:40.446Z,99744.69
2023-04-29T05:50:08.475Z,99750.06
2023-04-29T05:52:36.646Z,99751.97
2023-04-29T05:55:04.506Z,99744.63
2023-04-29T05:57:33.119Z,99747.31
2023-04-29T06:00:01.195Z,99753.81
2023-04-29T06:02:35.884Z,99757.66
2023-04-29T06:05:07.896Z,99765.09
2023-04-29T06:07:48.210Z,99764.66
2023-04-29T06:10:37.084Z,99778.22
2023-04-29T06:13:04.870Z,99784.28
2023-04-29T06:15:32.901Z,99781.94
2023-04-29T06:18:00.948Z,99783.91
2023-04-29T06:20:29.154Z,99785.00
2023-04-29T06:22:56.845Z,99784.75
2023-04-29T06:25:24.443Z,99786.91
2023-04-29T06:27:52.850Z,99787.94
2023-04-29T06:30:24.183Z,99790.50
2023-04-29T06:32:51.999Z,99795.25
2023-04-29T06:35:19.925Z,99797.47
2023-04-29T06:38:08.281Z,99790.84
2023-04-29T06:41:04.801Z,99799.41
2023-04-29T06:44:01.355Z,99801.47
2023-04-29T06:46:47.952Z,99808.47
2023-04-29T06:49:27.006Z,99786.97
2023-04-29T06:51:54.774Z,99797.38
2023-04-29T06:54:22.429Z,99795.66
2023-04-29T06:56:51.770Z,99807.28
2023-04-29T06:59:19.270Z,99818.09
2023-04-29T07:01:49.583Z,99805.59
2023-04-29T07:04:21.029Z,99805.91
2023-04-29T07:06:49.573Z,99808.69
2023-04-29T07:09:17.492Z,99813.63
2023-04-29T07:11:45.245Z,99815.88
2023-04-29T07:14:12.799Z,99811.66
2023-04-29T07:16:40.673Z,99832.50
2023-04-29T07:19:11.283Z,99825.06
2023-04-29T07:21:39.005Z,99828.38
2023-04-29T07:24:06.877Z,99830.78
2023-04-29T07:26:34.952Z,99823.06
2023-04-29T07:29:02.616Z,99832.63
2023-04-29T07:31:30.267Z,99844.91
2023-04-29T07:33:58.021Z,99839.22
2023-04-29T07:36:26.239Z,99845.19
2023-04-29T07:38:53.982Z,99841.72
2023-04-29T07:41:21.679Z,99836.16
2023-04-29T07:43:50.003Z,99838.94
2023-04-29T07:46:18.477Z,99847.31
2023-04-29T07:48:46.273Z,99851.78
2023-04-29T07:51:14.831Z,99859.63
2023-04-29T07:53:43.884Z,99846.28
2023-04-29T07:56:11.557Z,99853.63
2023-04-29T07:58:40.249Z,99853.53
2023-04-29T08:01:12.357Z,99846.34
2023-04-29T08:03:42.061Z,99842.56
2023-04-29T08:06:11.540Z,99861.94
2023-04-29T08:08:39.389Z,99868.47
2023-04-29T08:11:17.474Z,99862.81
2023-04-29T08:13:45.835Z,99858.09
2023-04-29T08:16:13.955Z,99872.56
2023-04-29T08:18:41.888Z,99873.66
2023-04-29T08:21:11.918Z,99878.31
2023-04-29T08:23:40.773Z,99879.72
2023-04-29T08:26:10.895Z,99890.34
2023-04-29T08:28:39.135Z,99890.88
2023-04-29T08:31:07.743Z,99886.97
2023-04-29T08:33:35.497Z,99898.72
2023-04-29T08:36:04.035Z,99887.41
2023-04-29T08:38:32.124Z,99879.84
2023-04-29T08:40:59.801Z,99887.06
2023-04-29T08:43:27.565Z,99877.94
2023-04-29T08:45:58.001Z,99882.50
2023-04-29T08:48:28.127Z,99878.00
2023-04-29T08:50:58.348Z,99873.13
2023-04-29T08:53:26.006Z,99871.03
2023-04-29T08:55:55.439Z,99870.38
2023-04-29T08:58:25.720Z,99866.19
2023-04-29T09:00:54.197Z,99876.56
2023-04-29T09:03:34.943Z,99872.50
2023-04-29T09:06:05.086Z,99870.78
2023-04-29T09:08:33.687Z,99881.09
2023-04-29T09:11:01.687Z,99868.13
2023-04-29T09:13:31.815Z,99875.13
2023-04-29T09:16:00.171Z,99886.38
2023-04-29T09:18:47.870Z,99887.66
2023-04-29T09:21:27.371Z,99894.28
2023-04-29T09:23:57.812Z,99899.69
2023-04-29T09:26:26.897Z,99909.81
2023-04-29T09:29:11.925Z,99909.56
2023-04-29T09:31:40.352Z,99907.34
2023-04-29T09:34:08.356Z,99890.78
2023-04-29T09:36:37.868Z,99896.41
2023-04-29T09:39:12.676Z,99877.94
2023-04-29T09:41:52.781Z,99895.56
2023-04-29T09:44:23.303Z,99893.16
2023-04-29T09:47:06.121Z,99890.38
2023-04-29T09:49:38.552Z,99895.97
2023-04-29T09:52:08.925Z,99903.19
2023-04-29T09:54:38.935Z,99901.97
2023-04-29T09:57:08.587Z,99899.09
2023-04-29T09:59:38.713Z,99904.22
2023-04-29T10:02:18.450Z,99903.22
2023-04-29T10:04:50.072Z,99900.47
2023-04-29T10:07:18.794Z,99904.38
2023-04-29T10:09:47.864Z,99907.16
2023-04-29T10:12:18.624Z,99906.53
2023-04-29T10:14:49.565Z,99913.56
2023-04-29T10:17:24.382Z,99917.06
2023-04-29T10:20:06.275Z,99925.13
2023-04-29T10:22:47.249Z,99920.81
2023-04-29T10:25:19.642Z,99926.44
2023-04-29T10:27:49.099Z,99935.97
2023-04-29T10:30:18.334Z,99933.88
2023-04-29T10:32:51.581Z,99939.66
2023-04-29T10:35:26.129Z,99939.09
2023-04-29T10:37:54.360Z,99945.19
2023-04-29T10:40:40.490Z,99947.69
2023-04-29T10:43:08.515Z,99954.09
2023-04-29T10:45:36.569Z,99955.41
2023-04-29T10:48:04.398Z,99949.56
2023-04-29T10:50:48.358Z,99965.22
2023-04-29T10:53:19.492Z,99972.13
2023-04-29T10:55:48.739Z,99967.19
2023-04-29T10:58:35.907Z,99971.56
2023-04-29T11:01:04.535Z,99962.00
2023-04-29T11:04:03.009Z,99970.19
2023-04-29T11:06:36.610Z,99982.72
2023-04-29T11:09:12.695Z,99980.53
2023-04-29T11:11:42.837Z,99984.84
2023-04-29T11:14:12.836Z,99977.69
2023-04-29T11:16:59.327Z,99982.94
2023-04-29T11:19:32.703Z,99976.66
2023-04-29T11:22:12.231Z,99971.19
2023-04-29T11:24:57.261Z,99971.97
2023-04-29T11:27:33.075Z,99971.88
2023-04-29T11:30:03.734Z,99969.16
2023-04-29T11:32:35.517Z,99972.94
2023-04-29T11:35:10.613Z,99983.81
2023-04-29T11:37:38.972Z,99987.25
2023-04-29T11:40:08.020Z,99986.19
2023-04-29T11:42:40.875Z,99975.19
2023-04-29T11:45:09.173Z,99975.97
2023-04-29T11:47:37.456Z,99960.69
2023-04-29T11:50:07.012Z,99968.03
2023-04-29T11:52:37.174Z,99963.75
2023-04-29T11:55:05.878Z,99973.25
2023-04-29T11:57:33.898Z,99972.38
2023-04-29T12:00:01.709Z,99957.72
2023-04-29T12:02:33.984Z,99956.19
2023-04-29T12:07:39.846Z,99937.50
2023-04-29T12:10:11.915Z,99949.41
2023-04-29T12:12:47.517Z,99946.72
2023-04-29T12:15:15.755Z,99943.09
2023-04-29T12:17:43.833Z,99948.97
2023-04-29T12:20:12.767Z,99956.16
2023-04-29T12:22:43.878Z,99957.28
2023-04-29T12:25:12.163Z,99951.03
2023-04-29T12:27:44.281Z,99947.50
2023-04-29T12:30:12.852Z,99938.66
2023-04-29T12:32:41.135Z,99936.69
2023-04-29T12:35:18.190Z,99939.94
2023-04-29T12:37:51.917Z,99939.19
2023-04-29T12:40:21.090Z,99942.47
2023-04-29T12:42:48.892Z,99952.31
2023-04-29T12:45:34.864Z,99956.03
2023-04-29T12:48:07.135Z,99952.78
2023-04-29T12:50:39.234Z,99950.03
2023-04-29T12:53:08.860Z,99959.69
2023-04-29T12:55:38.271Z,99964.06
2023-04-29T12:58:07.524Z,99950.25
2023-04-29T13:00:37.460Z,99949.81
2023-04-29T13:03:05.357Z,99952.66
2023-04-29T13:05:33.393Z,99952.19
2023-04-29T13:08:01.235Z,99953.78
2023-04-29T13:10:28.889Z,99953.00
2023-04-29T13:12:56.930Z,99949.03
2023-04-29T13:15:24.694Z,99951.69
2023-04-29T13:17:52.388Z,99947.22
2023-04-29T13:20:20.798Z,99952.31
2023-04-29T13:22:48.523Z,99952.16
2023-04-29T13:25:16.441Z,99952.81
2023-04-29T13:27:44.277Z,99955.13
2023-04-29T13:30:12.245Z,99947.84
2023-04-29T13:32:46.455Z,99952.69
2023-04-29T13:35:19.015Z,99952.34
2023-04-29T13:37:48.226Z,99958.13
2023-04-29T13:40:20.516Z,99946.69
2023-04-29T13:42:50.793Z,99951.66
2023-04-29T13:45:29.091Z,99959.16
2023-04-29T13:48:05.877Z,99960.66
2023-04-29T13:51:17.013Z,99956.03
2023-04-29T13:54:01.577Z,99958.41
2023-04-29T13:59:28.204Z,99965.56
2023-04-29T14:04:01.359Z,99953.75
2023-04-29T14:06:30.553Z,99951.03
2023-04-29T14:09:00.525Z,99942.88
2023-04-29T14:11:29.312Z,99942.81
2023-04-29T14:13:57.265Z,99944.41
2023-04-29T14:16:25.129Z,99938.19
2023-04-29T14:18:52.770Z,99952.69
2023-04-29T14:21:22.756Z,99949.84
2023-04-29T14:23:51.102Z,99936.69
2023-04-29T14:28:49.532Z,99941.69
2023-04-29T14:31:18.610Z,99943.38
2023-04-29T14:33:46.244Z,99954.47
2023-04-29T14:36:13.977Z,99942.16
2023-04-29T14:38:41.447Z,99943.63
2023-04-29T14:41:09.250Z,99947.69
2023-04-29T14:43:36.939Z,99943.84
2023-04-29T14:46:05.248Z,99948.03
2023-04-29T14:48:33.307Z,99949.53
2023-04-29T14:51:01.053Z,99946.75
2023-04-29T14:53:28.665Z,99943.09
2023-04-29T14:55:56.236Z,99954.09
2023-04-29T14:58:24.206Z,99958.31
2023-04-29T15:00:51.838Z,99958.25
2023-04-29T15:03:22.489Z,99958.13
2023-04-29T15:05:51.599Z,99954.41
2023-04-29T15:08:19.786Z,99949.22
2023-04-29T15:10:47.910Z,99951.63
2023-04-29T15:13:16.012Z,99950.66
2023-04-29T15:15:43.695Z,99953.16
2023-04-29T15:18:11.360Z,99947.81
2023-04-29T15:20:38.969Z,99946.81
2023-04-29T15:23:06.767Z,99945.69
2023-04-29T15:25:35.956Z,99961.31
2023-04-29T15:28:04.978Z,99954.19
2023-04-29T15:30:33.162Z,99956.63
2023-04-29T15:33:01.029Z,99963.31
2023-04-29T15:35:28.922Z,99960.47
2023-04-29T15:37:56.615Z,99964.66
2023-04-29T15:40:24.300Z,99967.06
2023-04-29T15:42:51.811Z,99966.91
2023-04-29T15:45:19.439Z,99984.03
2023-04-29T15:47:47.313Z,99976.22
2023-04-29T15:50:18.784Z,99969.16
2023-04-29T15:52:47.160Z,99963.78
2023-04-29T15:55:16.653Z,99970.63
2023-04-29T15:57:44.420Z,99959.16
2023-04-29T16:00:13.008Z,99972.78
2023-04-29T16:02:41.568Z,99965.72
2023-04-29T16:05:09.479Z,99974.91
2023-04-29T16:07:37.187Z,99978.25
2023-04-29T16:10:04.951Z,99971.88
2023-04-29T16:12:32.687Z,99978.72
2023-04-29T16:15:00.423Z,99988.91
2023-04-29T16:17:28.209Z,99998.28
2023-04-29T16:19:55.906Z,99986.81
2023-04-29T16:22:23.812Z,99996.16
2023-04-29T16:24:51.398Z,99996.09
2023-04-29T16:27:19.093Z,99989.00
2023-04-29T16:29:46.739Z,99988.78
2023-04-29T16:32:14.292Z,100003.31
2023-04-29T16:34:42.031Z,100000.59
2023-04-29T16:37:12.655Z,100008.19
2023-04-29T16:39:41.113Z,100014.06
2023-04-29T16:42:08.698Z,100019.97
2023-04-29T16:44:36.482Z,100019.00
2023-04-29T16:47:04.231Z,100019.59
2023-04-29T16:49:31.935Z,100021.16
2023-04-29T16:51:59.661Z,100014.13
2023-04-29T16:54:27.957Z,100021.72
2023-04-29T16:56:55.529Z,100019.03
2023-04-29T16:59:23.283Z,100026.59
2023-04-29T17:01:51.266Z,100029.00
2023-04-29T17:04:18.848Z,100027.13
2023-04-29T17:06:46.732Z,100026.06
2023-04-29T17:09:15.830Z,100026.78
2023-04-29T17:11:43.689Z,100044.66
2023-04-29T17:14:11.556Z,100051.50
2023-04-29T17:16:39.308Z,100063.38
2023-04-29T17:19:06.911Z,100056.28
2023-04-29T17:21:34.582Z,100059.59
2023-04-29T17:24:02.661Z,100068.03
2023-04-29T17:26:31.632Z,100065.34
2023-04-29T17:28:59.210Z,100061.84
2023-04-29T17:31:33.920Z,100058.22
2023-04-29T17:34:18.490Z,100068.50
2023-04-29T17:36:47.638Z,100067.56
2023-04-29T17:39:16.319Z,100063.09
2023-04-29T17:41:44.374Z,100066.44
2023-04-29T17:44:12.465Z,100079.34
2023-04-29T17:46:40.744Z,100078.44
2023-04-29T17:49:08.365Z,100066.38
2023-04-29T17:51:36.121Z,100077.56
2023-04-29T17:54:07.339Z,100080.13
2023-04-29T17:56:35.829Z,100087.84
2023-04-29T17:59:06.462Z,100083.41
2023-04-29T18:01:35.226Z,100092.91
2023-04-29T18:04:02.898Z,100095.41
2023-04-29T18:06:30.626Z,100096.28
2023-04-29T18:08:58.398Z,100091.94
2023-04-29T18:11:26.142Z,100091.91
2023-04-29T18:13:54.451Z,100097.91
2023-04-29T18:16:22.293Z,100094.47
2023-04-29T18:18:56.645Z,100104.69
2023-04-29T18:21:28.302Z,100099.50
2023-04-29T18:23:56.766Z,100108.91
2023-04-29T18:26:25.085Z,100119.09
2023-04-29T18:28:52.863Z,100118.03
2023-04-29T18:31:20.834Z,100119.59
2023-04-29T18:33:48.726Z,100121.28
2023-04-29T18:36:16.361Z,100113.31
2023-04-29T18:38:44.244Z,100111.47
2023-04-29T18:41:12.189Z,100117.41
2023-04-29T18:43:39.974Z,100108.69
2023-04-29T18:46:08.149Z,100114.59
2023-04-29T18:48:36.699Z,100116.28
2023-04-29T18:51:05.679Z,100127.44
2023-04-29T18:53:33.584Z,100134.91
2023-04-29T18:56:01.406Z,100135.78
2023-04-29T18:58:29.241Z,100139.19
2023-04-29T19:01:02.626Z,100128.72
2023-04-29T19:03:30.409Z,100140.59
2023-04-29T19:05:58.132Z,100144.81
2023-04-29T19:08:25.997Z,100150.75
2023-04-29T19:10:54.221Z,100155.56
2023-04-29T19:13:22.144Z,100160.56
2023-04-29T19:15:55.129Z,100164.59
2023-04-29T19:18:23.251Z,100167.63
2023-04-29T19:20:51.086Z,100170.06
2023-04-29T19:23:18.808Z,100171.50
2023-04-29T19:25:46.290Z,100169.53
2023-04-29T19:28:13.956Z,100168.59
2023-04-29T19:30:41.598Z,100164.16
2023-04-29T19:33:09.294Z,100176.34
2023-04-29T19:35:37.492Z,100181.41
2023-04-29T19:38:05.172Z,100178.69
2023-04-29T19:40:32.736Z,100189.66
2023-04-29T19:43:00.346Z,100185.91
2023-04-29T19:45:27.990Z,100192.81
2023-04-29T19:47:55.875Z,100199.56
2023-04-29T19:50:23.527Z,100194.50
2023-04-29T19:52:51.697Z,100193.44
2023-04-29T19:55:19.262Z,100188.06
2023-04-29T19:57:48.152Z,100190.47
2023-04-29T20:00:15.696Z,100189.47
2023-04-29T20:02:44.044Z,100186.97
2023-04-29T20:05:13.366Z,100179.19
2023-04-29T20:07:41.438Z,100191.34
2023-04-29T20:10:09.758Z,100187.03
2023-04-29T20:12:37.488Z,100191.16
2023-04-29T20:15:06.051Z,100195.47
2023-04-29T20:17:34.210Z,100184.09
2023-04-29T20:20:01.978Z,100199.50
2023-04-29T20:22:31.620Z,100210.34
2023-04-29T20:24:59.114Z,100200.81
2023-04-29T20:27:26.915Z,100200.69
2023-04-29T20:29:54.547Z,100209.91
2023-04-29T20:32:22.355Z,100200.97
2023-04-29T20:34:49.886Z,100196.41
2023-04-29T20:37:17.619Z,100210.28
2023-04-29T20:39:45.443Z,100209.41
2023-04-29T20:42:13.591Z,100210.78
2023-04-29T20:44:41.202Z,100209.69
2023-04-29T20:47:08.747Z,100207.91
2023-04-29T20:49:36.868Z,100210.50
2023-04-29T20:52:06.493Z,100210.50
2023-04-29T20:54:34.835Z,100210.28
2023-04-29T20:57:05.621Z,100217.97
2023-04-29T20:59:33.631Z,100203.09
2023-04-29T21:02:01.694Z,100208.22
2023-04-29T21:04:29.461Z,100209.03
2023-04-29T21:06:56.994Z,100204.59
2023-04-29T21:09:24.532Z,100205.28
2023-04-29T21:11:52.088Z,100200.72
2023-04-29T21:14:21.129Z,100205.78
2023-04-29T21:16:48.922Z,100205.72
2023-04-29T21:19:16.449Z,100203.03
2023-04-29T21:21:44.024Z,100208.03
2023-04-29T21:24:11.638Z,100199.41
2023-04-29T21:26:39.110Z,100207.22
2023-04-29T21:29:06.785Z,100207.16
2023-04-29T21:31:34.334Z,100194.91
2023-04-29T21:34:01.934Z,100202.66
2023-04-29T21:36:29.548Z,100201.72
2023-04-29T21:38:57.239Z,100204.94
2023-04-29T21:41:27.559Z,100213.56
2023-04-29T21:43:58.609Z,100198.91
2023-04-29T21:46:28.609Z,100205.81
2023-04-29T21:48:57.845Z,100203.09
2023-04-29T21:51:26.472Z,100210.06
2023-04-29T21:53:54.238Z,100203.81
2023-04-29T21:56:24.588Z,100199.50
2023-04-29T21:58:53.213Z,100188.22
2023-04-29T22:01:29.482Z,100201.25
2023-04-29T22:03:57.479Z,100196.78
2023-04-29T22:06:25.552Z,100200.88
2023-04-29T22:08:53.177Z,100207.75
2023-04-29T22:11:24.705Z,100203.13
2023-04-29T22:13:52.472Z,100200.25
2023-04-29T22:16:20.073Z,100203.59
2023-04-29T22:18:48.252Z,100212.97
2023-04-29T22:21:15.945Z,100198.91
2023-04-29T22:23:43.739Z,100213.53
2023-04-29T22:26:11.540Z,100198.81
2023-04-29T22:28:39.350Z,100191.94
2023-04-29T22:31:06.905Z,100190.97
2023-04-29T22:33:35.175Z,100189.38
2023-04-29T22:36:04.087Z,100207.44
2023-04-29T22:38:31.608Z,100188.59
2023-04-29T22:40:59.152Z,100186.81
2023-04-29T22:43:26.798Z,100195.09
2023-04-29T22:45:55.303Z,100188.06
2023-04-29T22:48:27.307Z,100184.94
2023-04-29T22:50:57.514Z,100196.72
2023-04-29T22:53:25.569Z,100181.91
2023-04-29T22:55:56.367Z,100182.56
2023-04-29T22:58:25.510Z,100188.44
2023-04-29T23:00:56.093Z,100189.84
2023-04-29T23:03:24.281Z,100193.81
2023-04-29T23:05:51.948Z,100178.81
2023-04-29T23:08:19.460Z,100186.28
2023-04-29T23:10:50.911Z,100186.22
2023-04-29T23:13:18.842Z,100185.09
2023-04-29T23:15:46.660Z,100178.06
2023-04-29T23:18:14.477Z,100184.13
2023-04-29T23:20:42.023Z,100187.22
2023-04-29T23:23:09.658Z,100183.91
2023-04-29T23:25:37.197Z,100182.31
2023-04-29T23:28:04.841Z,100179.56
2023-04-29T23:30:33.018Z,100177.88
2023-04-29T23:33:00.887Z,100181.25
2023-04-29T23:35:28.509Z,100178.53
2023-04-29T23:37:56.320Z,100176.78
2023-04-29T23:40:24.037Z,100182.50
2023-04-29T23:42:51.617Z,100179.78
2023-04-29T23:45:19.144Z,100186.31
2023-04-29T23:47:46.861Z,100180.78
2023-04-29T23:50:14.443Z,100189.34
2023-04-29T23:52:42.259Z,100196.47
2023-04-29T23:55:10.309Z,100190.41
2023-04-29T23:57:37.923Z,100194.72
